x

9444090 - Port Angeles, Wa (ptaw1) Weather Station

5:36 - Wed 5th Aug 2015 All times are PDT. -7 hours from GMT.

  • Wind
    3mph, 5mph gusts
  • Sea Temp 51°f
  • Air Temp 55°f
  • Sea Pressure 1017.3mb
  • 9444090 - Port Angeles, Wa
  • 9444090 - Port Angeles, Wa

More Historic Weather Station data

Upgrade to MSW Pro to gain access to the past 30 days of data for over 8000 Wavebouys and Weather Stations around the globe.

Join Pro

Comparision Forecast

View Surf forecast
   
mer. 08/05 5:36 3 5 mph 1017.3mb 51f 55f
5:30 3
mph
1017.2mb 51f 55f
5:24 2 5 mph 1017.3mb 52f 55f
5:18 2 5 mph 1017.3mb 52f 56f
5:12 2 5 mph 1017.3mb 52f 56f
5:06 2 3 mph 1017.2mb 52f 56f
5:00 5 9 mph 1017.2mb 52f 58f
4:36 5 8 mph 1017.2mb 52f 58f
4:30 6 9 mph 1017.2mb 52f 58f
4:24 7 9 mph 1017.1mb 52f 58f
4:18 7 11 mph 1017.2mb 52f 57f
4:12 5 10 mph 1017.1mb 52f 57f
4:06 3 9 mph 1017mb 52f 57f
4:00 5 6 mph 1016.9mb 52f 57f
3:36 8 13 mph 1016.7mb 52f 58f
3:30 7 10 mph 1016.6mb 52f 58f
3:24 6 10 mph 1016.6mb 52f 58f
3:18 6 9 mph 1016.6mb 52f 58f
3:12 6 13 mph 1016.5mb 52f 58f
3:06 7 14 mph 1016.4mb 52f 58f
3:00 13 17 mph 1016.4mb 52f 58f
2:36 15 21 mph 1016.3mb 52f 58f
2:30 15 21 mph 1016.2mb 52f 58f
2:24 15 18 mph 1016.3mb 52f 58f
2:18 15 17 mph 1016.3mb 52f 58f
2:12 16 22 mph 1016.3mb 52f 58f
2:06 17 23 mph 1016.2mb 52f 58f
2:00 15 17 mph 1016.2mb 52f 58f
1:36 10 14 mph 1016.2mb 52f 58f
1:30 13 16 mph 1016.2mb 53f 58f
1:24 13 18 mph 1016.2mb 53f 58f
1:18 14 20 mph 1016.2mb 53f 58f
1:12 16 22 mph 1016.2mb 53f 58f
1:06 15 18 mph 1016.2mb 53f 58f
1:00 16 21 mph 1016.1mb 53f 58f
12:36 14 17 mph 1016.3mb 53f 57f
12:30 14 16 mph 1016.4mb 53f 57f
12:24 13 15 mph 1016.4mb 53f 57f
12:18 14 16 mph 1016.3mb 53f 57f
12:12 13 16 mph 1016.3mb 53f 57f
12:06 13 16 mph 1016.3mb 53f 58f
12:00 10 16 mph 1016.4mb 53f 58f
mar. 08/04 11:36 13 18 mph 1016.3mb 53f 59f
11:30 11 20 mph 1016.2mb 53f 59f
11:24 9 21 mph 1016.2mb 53f 59f
11:18 14 18 mph 1016.1mb 53f 59f
11:12 14 20 mph 1016mb 53f 59f
11:06 16 22 mph 1015.9mb 53f 59f
11:00 17 23 mph 1015.8mb 53f 59f
10:36 13 16 mph 1016mb 53f 59f
10:30 9 21 mph 1015.9mb 53f 59f
10:24 15 22 mph 1015.8mb 53f 59f
10:18 18 22 mph 1015.8mb 53f 59f
10:12 17 23 mph 1015.8mb 53f 59f
10:06 17 22 mph 1015.7mb 52f 59f
10:00 17 22 mph 1015.7mb 53f 59f
9:36 14 20 mph 1016mb 52f 59f
9:30 14 18 mph 1015.9mb 52f 59f
9:24 15 24 mph 1015.9mb 52f 58f
9:18 22 29 mph 1015.9mb 52f 58f
9:12 20 29 mph 1015.8mb 52f 59f
9:06 22 28 mph 1015.8mb 52f 59f
9:00 21 26 mph 1015.7mb 52f 59f
8:36 17 23 mph 1015.8mb 53f 59f
8:30 11 17 mph 1015.9mb 53f 59f
8:24 14 18 mph 1015.8mb 53f 59f
8:18 17 26 mph 1015.7mb 53f 59f
8:12 23 30 mph 1015.7mb 53f 59f
8:06 24 30 mph 1015.7mb 53f 59f
8:00 21 26 mph 1015.8mb 53f 59f
7:36 21 26 mph 1016mb 53f 59f
7:30 18 25 mph 1016mb 53f 59f
7:24 22 26 mph 1015.8mb 53f 59f
7:18 21 25 mph 1015.8mb 53f 58f
7:12 18 24 mph 1015.8mb 53f 58f
7:06 20 23 mph 1015.8mb 53f 58f
7:00 22 26 mph 1015.7mb 53f 58f
6:36 22 26 mph 1015.9mb 54f 58f
6:30 23 29 mph 1015.9mb 54f 58f
6:24 25 31 mph 1016mb 54f 58f
6:18 22 30 mph 1016mb 54f 59f
6:12 24 31 mph 1015.9mb 54f 60f
6:06 23 29 mph 1015.9mb 54f 59f
6:00 23 29 mph 1016mb 54f 60f
5:36 21 26 mph 1015.9mb 54f 61f
5:30 20 24 mph 1015.8mb 54f 62f
5:24 20 23 mph 1015.9mb 54f 62f
5:18 20 24 mph 1015.9mb 54f 62f
5:12 18 22 mph 1016mb 54f 62f
5:06 16 22 mph 1016mb 54f 62f
5:00 17 24 mph 1015.9mb 54f 62f
4:36 18 24 mph 1015.8mb 53f 62f
4:30 21 26 mph 1015.8mb 53f 62f
4:24 17 21 mph 1015.9mb 53f 65f
4:18 17 21 mph 1015.9mb 53f 63f
4:12 17 22 mph 1015.9mb 53f 62f
4:06 17 23 mph 1015.9mb 53f 62f
4:00 17 24 mph 1015.9mb 53f 62f
3:36 16 21 mph 1015.7mb 53f 62f
3:30 16 20 mph 1015.8mb 53f 62f
3:24 14 17 mph 1015.8mb 53f 64f
3:18 13 17 mph 1015.8mb 53f 63f
3:12 14 15 mph 1015.9mb 53f 64f
3:06 11 13 mph 1015.9mb 53f 64f
3:00 10 11 mph 1015.9mb 53f 65f
2:36 6 7 mph 1015.9mb 52f 65f
2:30 6 8 mph 1016mb 52f 64f
2:24 5 7 mph 1016mb 52f 65f
2:18 6 8 mph 1016.1mb 51f 63f
2:12 7 9 mph 1016.2mb 51f 62f
2:06 8 10 mph 1016.2mb 51f 64f
2:00 8 11 mph 1016.2mb 51f 65f
1:36 6 7 mph 1016.1mb 51f 67f
1:30 5 6 mph 1016.1mb 51f 66f
1:24 3 6 mph 1016.1mb 51f 67f
1:18 3 6 mph 1016mb 51f 64f
1:12 3 6 mph 1016mb 51f 66f
1:06 3 6 mph 1016mb 51f 66f
1:00 5 6 mph 1016mb 51f 64f
12:36 3 5 mph 1015.9mb 51f 64f
12:30 2 3 mph 1015.9mb 51f 64f
12:24 2 5 mph 1015.9mb 51f 63f
12:18 2 5 mph 1015.9mb 51f 65f
12:12 2 3 mph 1016mb 52f 65f
12:06 2 3 mph 1015.9mb 52f 64f
12:00 2 3 mph 1015.9mb 52f 64f
11:36 3 6 mph 1016.1mb 52f 64f
11:30 3 8 mph 1016.1mb 52f 64f
11:24 6 8 mph 1016.1mb 52f 62f
11:18 8 9 mph 1016.1mb 52f 62f
11:12 8 10 mph 1016.1mb 52f 61f
11:06 9 11 mph 1016.1mb 52f 61f
11:00 10 11 mph 1016.1mb 52f 59f
10:36 9 10 mph 1016.1mb 52f 60f
10:30 8 10 mph 1016.2mb 52f 60f
10:24 9 10 mph 1016.1mb 52f 60f
10:18 8 9 mph 1016.1mb 52f 60f
10:12 7 8 mph 1016mb 52f 60f
10:06 7 9 mph 1016mb 52f 60f
10:00 7 9 mph 1016mb 52f 60f
9:36 6 9 mph 1015.9mb 52f 61f
9:30 8 9 mph 1015.8mb 52f 60f
9:24 9 11 mph 1015.8mb 52f 60f
9:18 8 10 mph 1015.8mb 52f 61f
9:12 9 10 mph 1015.8mb 52f 60f
9:06 8 10 mph 1015.9mb 52f 60f
9:00 9 10 mph 1015.9mb 52f 59f
8:36 7 9 mph 1015.8mb 52f 58f
8:30 7 9 mph 1015.9mb 52f 58f
8:24 7 9 mph 1015.8mb 52f 58f
8:18 8 10 mph 1015.8mb 51f 58f
8:12 9 10 mph 1015.7mb 51f 59f
8:06 8 9 mph 1015.7mb 51f 59f
8:00 5 6 mph 1015.7mb 51f 59f
7:36 3 5 mph 1015.8mb 52f 58f
7:30 2 5 mph 1015.7mb 52f 58f
7:24 3 8 mph 1015.7mb 52f 58f
7:18 5 10 mph 1015.7mb 52f 57f
7:12 6 8 mph 1015.6mb 52f 57f
7:06 3 6 mph 1015.6mb 52f 57f
7:00 6 8 mph 1015.7mb 52f 57f
6:36 3 5 mph 1015.5mb 52f 55f
6:30 3 7 mph 1015.5mb 52f 55f
6:24 2 6 mph 1015.4mb 52f 54f
6:18 2 6 mph 1015.4mb 52f 54f
6:12 2 5 mph 1015.3mb 52f 55f
6:06 3 5 mph 1015.3mb 52f 55f
6:00 2 3 mph 1015.2mb 52f 55f
5:54 2 3 mph 1015.1mb 52f 55f
5:48 1 3 mph 1015.1mb 52f 55f
5:36  -  3 mph 1015mb 52f 56f
5:30 2 7 mph 1015mb 52f 56f
5:24 3 6 mph 1015mb 52f 56f
5:18 5 7 mph 1015mb 52f 56f
5:12 5 7 mph 1014.9mb 52f 56f
5:06 6 9 mph 1015mb 52f 56f
5:00 5 8 mph 1015mb 52f 56f
4:54 3 7 mph 1015mb 52f 55f
4:48 3 6 mph 1015.1mb 52f 55f
4:36 2 3 mph 1015mb 52f 55f
4:30 2 5 mph 1014.8mb 52f 55f
4:24 3 8 mph 1014.9mb 52f 55f
4:18 3 6 mph 1014.9mb 52f 55f
4:12 6 7 mph 1014.9mb 52f 55f
4:06 3 5 mph 1014.8mb 52f 55f
4:00 5 7 mph 1014.9mb 52f 55f
3:54 3 6 mph 1014.8mb 52f 55f
3:48 2 3 mph 1014.8mb 52f 55f
3:36 5 10 mph 1014.7mb 52f 56f
3:30 6 10 mph 1014.8mb 52f 56f
3:24 3 8 mph 1014.8mb 52f 56f
3:18 7 11 mph 1014.8mb 52f 56f
3:12 5 10 mph 1014.7mb 52f 56f
3:06 3 11 mph 1014.7mb 52f 56f
3:00 5 9 mph 1014.7mb 52f 56f
2:54 5 11 mph 1014.7mb 52f 56f
2:48 7 13 mph 1014.7mb 52f 56f
2:36 7 9 mph 1014.7mb 52f 56f
2:30  -  5 mph 1014.7mb 52f 56f
2:24 2 5 mph 1014.7mb 52f 56f
2:18 1 5 mph 1014.7mb 52f 56f
2:12 2 5 mph 1014.7mb 52f 56f
2:06 2 6 mph 1014.7mb 52f 56f
2:00 2 5 mph 1014.7mb 52f 56f
1:54 2 5 mph 1014.7mb 52f 56f
1:48 1 6 mph 1014.7mb 52f 56f
1:36 3 6 mph 1014.7mb 52f 56f
1:30 7 11 mph 1014.8mb 52f 56f
1:24 8 11 mph 1014.7mb 52f 56f
1:18 10 13 mph 1014.8mb 52f 56f
1:12 7 9 mph 1014.8mb 52f 56f
1:06 6 7 mph 1014.8mb 52f 56f
1:00 2 5 mph 1014.8mb 52f 56f
12:54 2 3 mph 1014.8mb 52f 57f
12:48 2 3 mph 1014.8mb 52f 57f
12:36 3 5 mph 1014.8mb 52f 57f
12:30 1 5 mph 1014.7mb 52f 57f
12:24 3 5 mph 1014.7mb 52f 57f
12:18 5 9 mph 1014.7mb 52f 57f
12:12 6 8 mph 1014.6mb 52f 57f
12:06 2 6 mph 1014.6mb 52f 57f
12:00 6 8 mph 1014.5mb 52f 57f
lun. 08/03 11:54 7 10 mph 1014.5mb 52f 57f
11:48 5 6 mph 1014.4mb 52f 57f
11:36 10 14 mph 1014.4mb 52f 57f
11:30 9 14 mph 1014.4mb 52f 57f
11:24 8 13 mph 1014.4mb 52f 58f
11:18 6 11 mph 1014.4mb 52f 58f
11:12 8 11 mph 1014.3mb 52f 58f
11:06 6 10 mph 1014.3mb 52f 58f
11:00 10 15 mph 1014.1mb 52f 58f
10:54 14 16 mph 1014mb 52f 58f
10:48 13 16 mph 1014mb 52f 58f
10:36 13 17 mph 1014.2mb 52f 58f
10:30 14 18 mph 1014.3mb 52f 58f
10:24 15 17 mph 1014.4mb 52f 58f
10:18 13 17 mph 1014.4mb 52f 58f
10:12 10 13 mph 1014.5mb 52f 58f
10:06 8 13 mph 1014.5mb 52f 58f
10:00 8 11 mph 1014.5mb 52f 58f
9:54 6 8 mph 1014.5mb 52f 58f
9:48 2 10 mph 1014.3mb 52f 59f
9:36 6 8 mph 1014.3mb 52f 59f
9:30 5 7 mph 1014.3mb 52f 58f
9:24 6 9 mph 1014.3mb 52f 58f
9:18 10 16 mph 1014.2mb 52f 58f
9:12 11 15 mph 1014.1mb 52f 58f
9:06 13 16 mph 1014mb 52f 58f
9:00 11 16 mph 1013.9mb 52f 58f
8:54 13 17 mph 1013.9mb 52f 58f
8:48 14 18 mph 1013.8mb 52f 58f
8:36 18 22 mph 1013.5mb 52f 58f
8:30 17 21 mph 1013.4mb 52f 58f
8:24 18 22 mph 1013.3mb 52f 59f
8:18 16 20 mph 1013.3mb 52f 59f
8:12 17 21 mph 1013.2mb 52f 59f
8:06 17 24 mph 1013.2mb 52f 59f
8:00 16 21 mph 1013.1mb 52f 60f
7:54 17 23 mph 1013mb 52f 60f
7:48 20 24 mph 1012.9mb 52f 59f
7:36 22 28 mph 1012.9mb 52f 59f
7:30 21 29 mph 1013mb 52f 59f
7:24 21 28 mph 1013mb 52f 59f
7:18 22 28 mph 1012.9mb 52f 58f
7:12 22 28 mph 1012.9mb 52f 59f
7:06 22 28 mph 1012.8mb 52f 59f
7:00 22 28 mph 1012.8mb 52f 59f
6:54 24 31 mph 1012.8mb 52f 59f
6:48 24 29 mph 1012.8mb 53f 60f
6:36 20 24 mph 1012.9mb 53f 61f
6:30 17 22 mph 1012.8mb 53f 61f
6:24 18 22 mph 1012.9mb 53f 62f
6:18 21 23 mph 1012.9mb 53f 62f
6:12 20 22 mph 1012.9mb 53f 62f
6:06 18 24 mph 1013mb 53f 62f
6:00 22 25 mph 1013mb 53f 63f
5:54 21 24 mph 1013mb 53f 62f
5:48 21 23 mph 1013mb 53f 63f
5:36 22 25 mph 1012.9mb 53f 64f
5:30 21 24 mph 1012.9mb 53f 64f
5:24 22 24 mph 1012.9mb 53f 63f
5:18 18 24 mph 1013mb 53f 62f
5:12 20 25 mph 1013.1mb 53f 62f
5:06 18 24 mph 1013mb 53f 62f
5:00 20 24 mph 1013mb 53f 62f
4:54 20 25 mph 1013mb 52f 61f
4:48 21 25 mph 1013mb 52f 61f
4:36 17 23 mph 1013mb 52f 61f
4:30 20 25 mph 1013mb 52f 61f
4:24 20 24 mph 1013mb 52f 62f
4:18 17 24 mph 1013mb 52f 62f
4:12 20 24 mph 1013.1mb 52f 62f
4:06 21 26 mph 1013.1mb 52f 62f
4:00 20 24 mph 1013.1mb 52f 62f
3:54 18 24 mph 1013mb 52f 64f
3:48 15 20 mph 1013mb 52f 63f
3:36 22 25 mph 1013.1mb 52f 62f
3:30 22 28 mph 1013.1mb 52f 62f
3:24 22 28 mph 1013.2mb 52f 62f
3:18 23 28 mph 1013.3mb 52f 62f
3:12 22 30 mph 1013.3mb 52f 62f
3:06 21 29 mph 1013.3mb 52f 62f
3:00 21 28 mph 1013.3mb 52f 62f
2:54 22 28 mph 1013.2mb 52f 62f
2:48 17 22 mph 1013.2mb 53f 63f
2:36 17 25 mph 1013.2mb 53f 62f
2:30 17 24 mph 1013.4mb 53f 62f
2:24 18 28 mph 1013.5mb 53f 62f
2:18 17 23 mph 1013.5mb 53f 62f
2:12 17 26 mph 1013.6mb 53f 61f
2:06 17 25 mph 1013.6mb 53f 61f
2:00 18 24 mph 1013.6mb 53f 61f
1:54 20 26 mph 1013.7mb 53f 60f
1:48 20 25 mph 1013.7mb 53f 61f
1:36 16 24 mph 1013.6mb 53f 61f
1:30 20 24 mph 1013.6mb 53f 61f
1:24 16 21 mph 1013.5mb 53f 61f
1:18 16 22 mph 1013.5mb 53f 60f
1:12 18 24 mph 1013.5mb 53f 60f
1:06 17 26 mph 1013.4mb 53f 61f
1:00 23 30 mph 1013.4mb 53f 61f
12:54 20 25 mph 1013.4mb 53f 61f
12:48 21 26 mph 1013.4mb 52f 61f
12:36 17 23 mph 1013.3mb 52f 61f
12:30 16 22 mph 1013.3mb 52f 61f
12:24 18 23 mph 1013.4mb 52f 61f
12:18 15 21 mph 1013.5mb 52f 60f
12:12 18 29 mph 1013.5mb 52f 60f
12:06 17 23 mph 1013.5mb 52f 60f
12:00 18 23 mph 1013.5mb 52f 60f
11:54 17 22 mph 1013.6mb 52f 60f
11:48 16 23 mph 1013.6mb 52f 60f
11:36 14 21 mph 1013.6mb 52f 59f
11:30 16 23 mph 1013.7mb 52f 59f
11:24 20 26 mph 1013.6mb 52f 59f
11:18 17 26 mph 1013.6mb 52f 59f
11:12 20 28 mph 1013.6mb 52f 59f
11:06 18 25 mph 1013.7mb 52f 59f
11:00 17 23 mph 1013.6mb 52f 59f
10:54 17 24 mph 1013.5mb 52f 59f
10:48 17 22 mph 1013.4mb 52f 60f
10:36 14 17 mph 1013.5mb 52f 59f
10:30 13 18 mph 1013.6mb 52f 59f
10:24 15 20 mph 1013.5mb 52f 61f
10:18 16 20 mph 1013.5mb 52f 61f
10:12 15 17 mph 1013.4mb 52f 62f
10:06 13 14 mph 1013.5mb 52f 61f
10:00 13 16 mph 1013.5mb 52f 61f
9:54 14 16 mph 1013.6mb 52f 59f
9:48 13 16 mph 1013.6mb 52f 60f
9:36 13 16 mph 1013.6mb 52f 59f
9:30 11 15 mph 1013.6mb 52f 59f
9:24 13 15 mph 1013.7mb 52f 59f
9:18 11 16 mph 1013.6mb 52f 59f
9:12 13 16 mph 1013.6mb 52f 60f
9:06 13 15 mph 1013.6mb 52f 60f
9:00 13 16 mph 1013.5mb 52f 60f
8:54 14 16 mph 1013.5mb 52f 58f
8:48 11 15 mph 1013.6mb 52f 58f
8:36 10 13 mph 1013.5mb 51f 58f
8:30 9 15 mph 1013.5mb 51f 57f
8:24 9 15 mph 1013.5mb 51f 58f
8:18 10 14 mph 1013.5mb 51f 57f
8:12 9 14 mph 1013.6mb 51f 57f
8:06 9 14 mph 1013.4mb 51f 57f
8:00 11 16 mph 1013.4mb 51f 57f
7:54 9 14 mph 1013.4mb 51f 57f
7:48 11 14 mph 1013.3mb 52f 57f
7:36 11 16 mph 1013.2mb 52f 56f
7:30 11 16 mph 1013.2mb 52f 56f
7:24 13 17 mph 1013.2mb 52f 56f
7:18 13 17 mph 1013.1mb 52f 56f
7:12 15 18 mph 1013.1mb 52f 56f
7:06 14 17 mph 1013mb 52f 56f
7:00 13 17 mph 1013mb 52f 56f
6:54 13 17 mph 1013.1mb 52f 56f
6:48 13 18 mph 1013mb 52f 56f
6:36 13 17 mph 1012.8mb 52f 55f
6:30 13 18 mph 1012.8mb 52f 55f
6:24 14 17 mph 1012.7mb 52f 55f
6:18 13 15 mph 1012.7mb 52f 55f
6:12 13 17 mph 1012.6mb 52f 55f
6:06 15 17 mph 1012.5mb 52f 55f
6:00 14 20 mph 1012.5mb 52f 55f
5:54 13 17 mph 1012.5mb 52f 55f
5:48 11 17 mph 1012.5mb 52f 55f
5:36 14 21 mph 1012.4mb 52f 56f
5:30 15 20 mph 1012.4mb 52f 55f
5:24 14 20 mph 1012.4mb 52f 56f
5:18 9 15 mph 1012.5mb 52f 56f
5:12 9 15 mph 1012.3mb 52f 56f
5:06 13 16 mph 1012.3mb 52f 56f
5:00 10 13 mph 1012.3mb 51f 55f
4:54 11 15 mph 1012.2mb 51f 55f
4:48 13 16 mph 1012.3mb 51f 56f
4:36 13 15 mph 1012.3mb 51f 56f
4:30 10 15 mph 1012.3mb 50f 56f
4:24 10 14 mph 1012.3mb 51f 56f
4:18 10 14 mph 1012.4mb 51f 56f
4:12 6 10 mph 1012.4mb 51f 56f
4:06 10 15 mph 1012.4mb 51f 56f
4:00 8 11 mph 1012.3mb 51f 56f
3:54 8 14 mph 1012.3mb 51f 56f
3:48 10 20 mph 1012.3mb 51f 56f
3:36 5 9 mph 1012.4mb 52f 56f
3:30 5 9 mph 1012.4mb 52f 56f
3:24 7 11 mph 1012.3mb 52f 56f
3:18 9 14 mph 1012.3mb 52f 56f
3:12 8 11 mph 1012.2mb 52f 56f
3:06 8 13 mph 1012.2mb 52f 56f
3:00 6 10 mph 1012.3mb 52f 57f
2:54 6 10 mph 1012.1mb 52f 57f
2:48 5 8 mph 1012.1mb 52f 57f
2:36 7 11 mph 1012mb 52f 57f
2:30 9 14 mph 1012mb 52f 58f
2:24 6 14 mph 1011.9mb 52f 57f
2:18 11 16 mph 1011.9mb 52f 58f
2:12 10 13 mph 1012mb 52f 58f
2:06 10 13 mph 1012mb 52f 58f
2:00 11 14 mph 1011.9mb 52f 58f
1:54 11 17 mph 1011.8mb 53f 58f
1:48 13 17 mph 1011.8mb 53f 58f
1:36 13 16 mph 1012mb 53f 59f
1:30 14 17 mph 1011.9mb 53f 58f
1:24 14 17 mph 1011.9mb 53f 58f
1:18 14 17 mph 1012mb 53f 58f
1:12 11 17 mph 1012mb 53f 58f
1:06 13 16 mph 1012mb 53f 59f
1:00 11 16 mph 1012.1mb 53f 59f
12:54 10 14 mph 1012.2mb 53f 59f
12:48 9 14 mph 1012.2mb 53f 58f
12:36 17 22 mph 1012mb 54f 59f
12:30 14 17 mph 1012mb 54f 59f
12:24 14 21 mph 1012mb 54f 59f
12:18 16 21 mph 1012mb 54f 59f
12:12 11 16 mph 1011.9mb 54f 59f
12:06 10 16 mph 1012mb 54f 59f
12:00 10 14 mph 1012.1mb 54f 59f
dim. 08/02 11:54 14 15 mph 1012.1mb 54f 59f
11:48 11 15 mph 1012.1mb 54f 59f
11:36 11 16 mph 1012.2mb 54f 60f
11:30 13 17 mph 1012.2mb 54f 59f
11:24 14 17 mph 1012.2mb 54f 59f
11:18 14 17 mph 1012.2mb 54f 59f
11:12 14 20 mph 1012.3mb 54f 59f
11:06 13 17 mph 1012.3mb 54f 59f
11:00 11 15 mph 1012.3mb 54f 59f
10:54 13 18 mph 1012.4mb 54f 59f
10:48 15 20 mph 1012.3mb 54f 59f
10:36 15 21 mph 1012.3mb 54f 60f
10:30 15 22 mph 1012.4mb 54f 60f
10:24 14 18 mph 1012.4mb 54f 60f
10:18 10 14 mph 1012.4mb 53f 61f
10:12 10 13 mph 1012.4mb 53f 61f
10:06 13 16 mph 1012.3mb 53f 61f
10:00 9 11 mph 1012.4mb 53f 61f
9:54 10 17 mph 1012.4mb 54f 61f
9:48 11 16 mph 1012.4mb 54f 62f
9:36 11 16 mph 1012.5mb 53f 61f
9:30 14 16 mph 1012.5mb 53f 61f
9:24 13 15 mph 1012.6mb 53f 61f
9:18 14 16 mph 1012.6mb 53f 61f
9:12 14 16 mph 1012.5mb 53f 61f
9:06 15 17 mph 1012.5mb 53f 62f
9:00 15 16 mph 1012.5mb 52f 63f
8:54 14 16 mph 1012.5mb 52f 62f
8:48 15 16 mph 1012.5mb 52f 62f
8:36 14 15 mph 1012.6mb 52f 64f
8:30 8 13 mph 1012.6mb 52f 64f
8:24 8 10 mph 1012.6mb 52f 64f
8:18 3 6 mph 1012.6mb 52f 65f
8:12 7 10 mph 1012.6mb 52f 65f
8:06 9 13 mph 1012.5mb 52f 65f
8:00 8 13 mph 1012.5mb 52f 64f
7:54 11 14 mph 1012.5mb 52f 65f
7:48 9 13 mph 1012.5mb 52f 66f
7:36 10 13 mph 1012.5mb 52f 68f
7:30 8 13 mph 1012.5mb 52f 68f
7:24 8 11 mph 1012.5mb 52f 68f
7:18 9 15 mph 1012.5mb 52f 67f
7:12 11 15 mph 1012.5mb 52f 68f
7:06 14 17 mph 1012.4mb 52f 68f
7:00 14 16 mph 1012.4mb 52f 66f
6:54 11 13 mph 1012.3mb 52f 69f
6:48 10 13 mph 1012.4mb 52f 70f
6:36 11 15 mph 1012.6mb 53f 70f
6:30 11 14 mph 1012.6mb 53f 69f
6:24 10 14 mph 1012.6mb 53f 68f
6:18 9 13 mph 1012.7mb 53f 69f
6:12 7 10 mph 1012.7mb 53f 71f
6:06 8 14 mph 1012.8mb 53f 70f
6:00 10 14 mph 1012.9mb 53f 68f
5:54 9 14 mph 1012.9mb 53f 67f
5:48 11 13 mph 1012.9mb 53f 67f
5:36 11 16 mph 1012.9mb 53f 64f
5:30 15 20 mph 1012.9mb 53f 65f
5:24 17 20 mph 1013mb 53f 64f
5:18 16 18 mph 1013.1mb 53f 64f
5:12 14 16 mph 1013.3mb 53f 62f
5:06 13 20 mph 1013.2mb 53f 62f
5:00 17 21 mph 1013.1mb 53f 64f
4:54 15 17 mph 1013mb 54f 65f
4:48 15 20 mph 1013.1mb 54f 65f
4:36 16 20 mph 1013mb 54f 66f
4:30 17 20 mph 1013mb 54f 65f
4:24 15 18 mph 1013mb 54f 66f
4:18 14 18 mph 1013mb 54f 66f
4:12 15 17 mph 1013.1mb 54f 65f
4:06 15 16 mph 1013.2mb 54f 65f
4:00 14 16 mph 1013.2mb 54f 65f
3:54 13 15 mph 1013.3mb 54f 65f
3:48 14 17 mph 1013.3mb 54f 66f
3:36 15 17 mph 1013.3mb 54f 64f
3:30 15 17 mph 1013.4mb 54f 63f
3:24 15 18 mph 1013.4mb 54f 63f
3:18 16 18 mph 1013.4mb 54f 63f
3:12 16 20 mph 1013.5mb 54f 63f
3:06 16 20 mph 1013.5mb 54f 63f
3:00 15 17 mph 1013.6mb 54f 61f
2:54 17 20 mph 1013.7mb 53f 63f
2:48 15 18 mph 1013.7mb 53f 62f
2:36 16 20 mph 1013.7mb 53f 63f
2:30 17 20 mph 1013.7mb 53f 63f
2:24 15 18 mph 1013.7mb 53f 63f
2:18 14 16 mph 1013.8mb 53f 64f
2:12 14 15 mph 1013.7mb 53f 65f
2:06 13 15 mph 1013.8mb 53f 66f
2:00 11 14 mph 1013.9mb 53f 64f
1:54 11 14 mph 1013.9mb 53f 63f
1:48 10 13 mph 1014mb 53f 63f
1:36 10 11 mph 1014.2mb 53f 62f
1:30 10 11 mph 1014.2mb 53f 62f
1:24 9 11 mph 1014.2mb 53f 63f
1:18 11 13 mph 1014.2mb 52f 65f
1:12 9 11 mph 1014.3mb 52f 64f
1:06 11 13 mph 1014.3mb 52f 63f
1:00 10 13 mph 1014.2mb 52f 63f
12:54 11 13 mph 1014.1mb 52f 61f
12:48 11 15 mph 1014.1mb 52f 63f
12:36 13 14 mph 1014.2mb 52f 63f
12:30 13 14 mph 1014.2mb 52f 62f
12:24 11 13 mph 1014.2mb 52f 63f
12:18 10 11 mph 1014.2mb 52f 62f
12:12 7 10 mph 1014.2mb 52f 63f
12:06 5 7 mph 1014.2mb 52f 63f
12:00 3 6 mph 1014.2mb 52f 63f
11:54 3 7 mph 1014.3mb 53f 64f
11:48 5 7 mph 1014.3mb 53f 64f
11:36 3 6 mph 1014.5mb 53f 63f
11:30 3 6 mph 1014.4mb 53f 62f
11:24 5 6 mph 1014.4mb 53f 61f
11:18 5 6 mph 1014.4mb 53f 61f
11:12 5 6 mph 1014.4mb 53f 62f
11:06 3 7 mph 1014.5mb 53f 60f
11:00 3 7 mph 1014.6mb 53f 62f
10:54 3 8 mph 1014.7mb 53f 61f
10:48 7 11 mph 1014.7mb 53f 61f
10:36 7 9 mph 1014.8mb 53f 61f
10:30 7 10 mph 1014.7mb 53f 61f
10:24 8 11 mph 1014.7mb 53f 60f
10:18 10 13 mph 1014.7mb 53f 60f
10:12 10 13 mph 1014.6mb 53f 59f
10:06 10 13 mph 1014.6mb 53f 58f
10:00 10 11 mph 1014.6mb 53f 59f
9:54 10 13 mph 1014.6mb 53f 58f
9:48 11 14 mph 1014.5mb 53f 58f
9:36 10 11 mph 1014.5mb 52f 59f
9:30 9 10 mph 1014.5mb 52f 59f
9:24 7 10 mph 1014.4mb 52f 59f
9:18 9 10 mph 1014.6mb 53f 58f
9:12 10
mph
1014.5mb 52f 58f
9:06 6 7 mph 1014.4mb 52f 58f
9:00 6 7 mph 1014.4mb 52f 58f
8:54 6 7 mph 1014.4mb 52f 58f
8:48 3 5 mph 1014.4mb 52f 59f
8:36 2 5 mph 1014.4mb 52f 59f
8:30 2 5 mph 1014.5mb 52f 60f
8:24 2 5 mph 1014.6mb 52f 61f
8:18  -  1 mph 1014.4mb 52f 60f
8:12  -  1 mph 1014.4mb 52f 59f
8:06  -  2 mph 1014.4mb 52f 59f
8:00  -  2 mph 1014.4mb 51f 59f
7:54 2 3 mph 1014.2mb 52f 60f
7:48  -  1 mph 1014.2mb 52f 59f
7:36 2 3 mph 1014.2mb 52f 60f
7:30 2 3 mph 1014.1mb 52f 59f
7:24  -  3 mph 1014.2mb 52f 58f
7:18 3 5 mph 1014.2mb 52f 58f
7:12 3 5 mph 1014.1mb 52f 58f
7:06 2 3 mph 1014.1mb 52f 57f
7:00  -  1 mph 1014.1mb 52f 57f
6:54  -  1 mph 1014mb 52f 57f
6:48 1 2 mph 1014mb 52f 57f
6:36 2 5 mph 1013.8mb 52f 56f
6:30 1 2 mph 1013.7mb 52f 55f
6:24 1 2 mph 1013.8mb 52f 55f
6:18 2 3 mph 1013.8mb 52f 55f
6:12 2 3 mph 1013.8mb 52f 55f
6:06 2
mph
1013.8mb 52f 55f
6:00  -  1 mph 1013.8mb 52f 56f
5:54  -  2 mph 1013.7mb 52f 56f
5:48  -  2 mph 1013.6mb 52f 56f
5:36 2 5 mph 1013.5mb 52f 56f
5:30 3 6 mph 1013.4mb 52f 57f
5:24 5 6 mph 1013.5mb 52f 57f
5:18 3 5 mph 1013.5mb 52f 56f
5:12 2 5 mph 1013.6mb 52f 56f
5:06 5 6 mph 1013.4mb 52f 56f
5:00 5 6 mph 1013.4mb 52f 56f
4:54 5 6 mph 1013.5mb 52f 56f
4:48 3 5 mph 1013.5mb 52f 56f
4:36 5 6 mph 1013.6mb 52f 56f
4:30 3 5 mph 1013.6mb 51f 55f
4:24 2 3 mph 1013.5mb 51f 56f
4:18 2 5 mph 1013.4mb 51f 56f
4:12 3 5 mph 1013.4mb 51f 56f
4:06  -  2 mph 1013.3mb 51f 56f
4:00  -  1 mph 1013.3mb 51f 56f
3:54 1 2 mph 1013.2mb 51f 56f
3:48 2
mph
1013.3mb 51f 56f
3:36  -  2 mph 1013.2mb 52f 56f
3:30 1 3 mph 1013.3mb 52f 57f
3:24 1 2 mph 1013.3mb 52f 57f
3:18  -  2 mph 1013.4mb 52f 56f
3:12  -  2 mph 1013.4mb 52f 57f
3:06 2
mph
1013.4mb 52f 57f
3:00 2 3 mph 1013.5mb 52f 56f
2:54 1 2 mph 1013.6mb 52f 56f
2:48  -  2 mph 1013.6mb 52f 56f
2:36 2 3 mph 1013.6mb 52f 56f
2:30 2
mph
1013.5mb 52f 57f
2:24 2 3 mph 1013.6mb 52f 57f
2:18 1 2 mph 1013.6mb 52f 57f
2:12 1 3 mph 1013.7mb 52f 57f
2:06 2 3 mph 1013.7mb 52f 56f
2:00 3 6 mph 1013.7mb 52f 57f
1:54 2 3 mph 1013.7mb 52f 57f
1:48 1 7 mph 1013.7mb 52f 58f
1:36 3
mph
1013.7mb 52f 58f
1:30 3
mph
1013.7mb 52f 59f
1:24 1 3 mph 1013.6mb 52f 59f
1:18 2 3 mph 1013.8mb 52f 59f
1:12 2 3 mph 1013.8mb 53f 59f
1:06 2 5 mph 1013.9mb 53f 59f
1:00 2 6 mph 1013.9mb 53f 59f
12:54 5 6 mph 1013.8mb 53f 58f
12:48 5 6 mph 1013.9mb 53f 59f
12:36 5 6 mph 1013.9mb 53f 59f
12:30 3 7 mph 1013.9mb 53f 59f
12:24 5 9 mph 1013.9mb 53f 58f
12:18 7 13 mph 1013.7mb 53f 59f
12:12 6 11 mph 1013.8mb 53f 59f
12:06 10 13 mph 1013.7mb 53f 59f
12:00 10 14 mph 1013.6mb 53f 58f
sam. 08/01 11:54 14 17 mph 1013.5mb 53f 59f
11:48 11 15 mph 1013.6mb 53f 59f
11:36 8 11 mph 1013.5mb 53f 60f
11:30 9 11 mph 1013.5mb 53f 60f
11:24 8 14 mph 1013.6mb 53f 60f
11:18 10 13 mph 1013.6mb 54f 60f
11:12 10 13 mph 1013.6mb 54f 60f
11:06 7 10 mph 1013.6mb 54f 60f
11:00 8 11 mph 1013.6mb 54f 60f
10:54 8 11 mph 1013.6mb 54f 60f
10:48 9 14 mph 1013.6mb 54f 60f
10:36 10 16 mph 1013.6mb 54f 60f
10:30 14 17 mph 1013.6mb 54f 60f
10:24 14 17 mph 1013.6mb 54f 60f
10:18 14 18 mph 1013.6mb 54f 61f
10:12 16 18 mph 1013.6mb 54f 62f
10:06 17 21 mph 1013.6mb 54f 63f
10:00 9 16 mph 1013.7mb 54f 65f
9:54 7 14 mph 1013.7mb 54f 64f
9:48 6 16 mph 1013.7mb 54f 66f
9:36 8 11 mph 1013.6mb 54f 64f
9:30 9 11 mph 1013.6mb 54f 64f
9:24 9 13 mph 1013.6mb 54f 65f
9:18 8 10 mph 1013.7mb 54f 65f
9:12 6 11 mph 1013.7mb 54f 66f
9:06 8 11 mph 1013.7mb 54f 66f
9:00 7 11 mph 1013.7mb 54f 67f
8:54 8 10 mph 1013.7mb 54f 67f
8:48 9 13 mph 1013.8mb 54f 67f
8:36 9 13 mph 1013.8mb 53f 66f
8:30 10 15 mph 1013.8mb 53f 67f
8:24 13 14 mph 1013.8mb 53f 65f
8:18 11 13 mph 1013.8mb 53f 67f
8:12 14 16 mph 1013.9mb 53f 67f
8:06 14 17 mph 1013.9mb 53f 67f
8:00 15 17 mph 1013.8mb 52f 67f
7:54 7 11 mph 1013.8mb 52f 68f
7:48 8 16 mph 1013.8mb 52f 69f
7:36 13 18 mph 1013.9mb 52f 69f
7:30 14 16 mph 1013.9mb 52f 69f
7:24 9 15 mph 1013.9mb 52f 69f
7:18 15 16 mph 1013.9mb 52f 68f
7:12 14 18 mph 1013.9mb 52f 67f
7:06 16 18 mph 1013.9mb 52f 66f
7:00 16 21 mph 1013.9mb 52f 68f
6:54 20 22 mph 1013.8mb 52f 67f
6:48 17 20 mph 1013.8mb 52f 69f
6:36 18 22 mph 1013.9mb 52f 67f
6:30 16 17 mph 1014mb 52f 69f
6:24 14 17 mph 1014mb 52f 68f
6:18 14 15 mph 1014.1mb 52f 68f
6:12 14 16 mph 1014.2mb 52f 68f
6:06 15 17 mph 1014.3mb 52f 68f
6:00 15 17 mph 1014.2mb 52f 65f
5:54 14 18 mph 1014.2mb 52f 66f
5:48 16 18 mph 1014.2mb 52f 67f
5:36 17 20 mph 1014.2mb 52f 65f
5:30 17 21 mph 1014.3mb 52f 66f
5:24 18 22 mph 1014.3mb 52f 66f
5:18 15 18 mph 1014.5mb 52f 65f
5:12 15 18 mph 1014.6mb 52f 65f
5:06 17 21 mph 1014.6mb 52f 65f
5:00 15 18 mph 1014.7mb 52f 64f
4:54 14 18 mph 1014.7mb 53f 66f
4:48 17 20 mph 1014.7mb 53f 65f
4:36 17 20 mph 1014.8mb 53f 65f
4:30 16 21 mph 1014.8mb 53f 65f
4:24 16 18 mph 1014.8mb 53f 65f
4:18 15 17 mph 1014.8mb 53f 64f
4:12 14 17 mph 1014.9mb 53f 64f
4:06 15 18 mph 1014.9mb 53f 64f
4:00 15 17 mph 1015mb 53f 65f
3:54 16 18 mph 1015.1mb 53f 64f
3:48 15 18 mph 1015.1mb 53f 64f
3:36 15 17 mph 1015.2mb 54f 64f
3:30 14 16 mph 1015.2mb 54f 65f
3:24 14 17 mph 1015.3mb 54f 66f
3:18 15 18 mph 1015.4mb 54f 65f
3:12 16 18 mph 1015.4mb 54f 65f
3:06 16 17 mph 1015.3mb 54f 65f
3:00 16 17 mph 1015.3mb 54f 66f
2:54 14 17 mph 1015.4mb 54f 65f
2:48 15 17 mph 1015.5mb 54f 64f
2:36 13 15 mph 1015.7mb 54f 64f
2:30 13 15 mph 1015.8mb 54f 62f
2:24 14 15 mph 1015.8mb 54f 64f
2:18 11 14 mph 1015.9mb 53f 63f
2:12 10 13 mph 1016mb 53f 64f
2:06 10 13 mph 1016mb 53f 62f
2:00 10 11 mph 1016mb 53f 64f
1:54 9 10 mph 1016.1mb 53f 63f
1:48 10 11 mph 1016.1mb 52f 64f
1:36 10 11 mph 1016.2mb 52f 64f